Janabanana IV — WDF7266 — position and weather

sailwx.info

Track history (hours):
 
Tides and Currents Weather Stations Pressure Air Temp Water Temp Dewpoint Dewpoint Depression Visibility Wind Speed Wind Dir Waves Ship Positions

Janabanana IV

Owner: Goodhead, David D, Tigard, OR. More information available from US FCC via Universal Licensing System and Coast Guard Vessel Documentation Center.

Last reported at 2015-Mar-28 11:30 UTC. Time now 2015-Mar-28 12:19 UTC.
Position N 33°21' W 118°19'.

Length 18 m.

Type: Pleasure craft. MMSI: 367482760.

Date/timePositionNaut miles runAvg speedWind from/ knotsBaromVisibWave heightAir tempDewpointWater temp
2015-Mar-28 11:30N 33°21' W 118°19'0 0.0
2015-Mar-28 10:24N 33°21' W 118°19'0 0.0
2015-Mar-28 09:09N 33°21' W 118°19'0 0.0
2015-Mar-28 08:15N 33°21' W 118°19'0 0.0
2015-Mar-28 07:24N 33°21' W 118°19'0 0.0
2015-Mar-28 06:30N 33°21' W 118°19'0 0.0
2015-Mar-27 23:30N 33°21' W 118°19'8 8.5
2015-Mar-27 22:32N 33°16' W 118°12'9 8.9
2015-Mar-27 21:29N 33°10' W 118°03'9 8.9
2015-Mar-27 20:30N 33°05' W 117°55'9 9.0
2015-Mar-27 19:32N 32°59' W 117°46'9 9.1
2015-Mar-27 18:33N 32°54' W 117°38'9 9.3
2015-Mar-27 17:33N 32°48' W 117°29'9 9.1
2015-Mar-27 16:33N 32°42' W 117°21'6 5.3
2015-Mar-27 15:27N 32°42' W 117°14'  
Track history (hours):
 
Tides and Currents Weather Stations Pressure Air Temp Water Temp Dewpoint Dewpoint Depression Visibility Wind Speed Wind Dir Waves Ship Positions

Janabanana IV

Owner: Goodhead, David D, Tigard, OR. More information available from US FCC via Universal Licensing System and Coast Guard Vessel Documentation Center.

Last reported at 2015-Mar-28 11:30 UTC. Time now 2015-Mar-28 12:19 UTC.
Position N 33°21' W 118°19'.

Length 18 m.

Type: Pleasure craft. MMSI: 367482760.

Date/timePositionNaut miles runAvg speedWind from/ knotsBaromVisibWave heightAir tempDewpointWater temp
2015-Mar-28 11:30N 33°21' W 118°19'0 0.0
2015-Mar-28 10:24N 33°21' W 118°19'0 0.0
2015-Mar-28 09:09N 33°21' W 118°19'0 0.0
2015-Mar-28 08:15N 33°21' W 118°19'0 0.0
2015-Mar-28 07:24N 33°21' W 118°19'0 0.0
2015-Mar-28 06:30N 33°21' W 118°19'0 0.0
2015-Mar-27 23:30N 33°21' W 118°19'8 8.5
2015-Mar-27 22:32N 33°16' W 118°12'9 8.9
2015-Mar-27 21:29N 33°10' W 118°03'9 8.9
2015-Mar-27 20:30N 33°05' W 117°55'9 9.0
2015-Mar-27 19:32N 32°59' W 117°46'9 9.1
2015-Mar-27 18:33N 32°54' W 117°38'9 9.3
2015-Mar-27 17:33N 32°48' W 117°29'9 9.1
2015-Mar-27 16:33N 32°42' W 117°21'6 5.3
2015-Mar-27 15:27N 32°42' W 117°14'  

Dump ship's entire track history